createdAt,value
2018-10-05T00:01:35.432Z,95.70
2018-10-05T00:04:04.561Z,95.80
2018-10-05T00:06:32.908Z,96.00
2018-10-05T00:09:01.675Z,95.70
2018-10-05T00:11:30.473Z,95.60
2018-10-05T00:13:58.797Z,95.60
2018-10-05T00:16:27.497Z,95.70
2018-10-05T00:18:56.349Z,95.40
2018-10-05T00:21:24.668Z,95.40
2018-10-05T00:23:52.988Z,95.40
2018-10-05T00:26:21.375Z,95.40
2018-10-05T00:28:49.686Z,95.40
2018-10-05T00:31:18.367Z,95.40
2018-10-05T00:33:46.768Z,95.50
2018-10-05T00:36:15.152Z,95.40
2018-10-05T00:38:43.559Z,95.40
2018-10-05T00:41:12.242Z,95.40
2018-10-05T00:43:40.595Z,95.30
2018-10-05T00:46:09.033Z,95.50
2018-10-05T00:48:37.370Z,95.50
2018-10-05T00:51:05.712Z,95.50
2018-10-05T00:53:34.124Z,95.30
2018-10-05T00:56:02.624Z,95.20
2018-10-05T00:58:30.960Z,95.30
2018-10-05T01:00:59.293Z,95.10
2018-10-05T01:03:28.270Z,94.90
2018-10-05T01:05:56.585Z,94.90
2018-10-05T01:08:24.942Z,94.90
2018-10-05T01:10:54.219Z,94.70
2018-10-05T01:13:22.585Z,94.70
2018-10-05T01:15:51.184Z,94.70
2018-10-05T01:18:19.891Z,94.70
2018-10-05T01:20:49.027Z,94.60
2018-10-05T01:23:17.495Z,94.50
2018-10-05T01:25:45.893Z,94.60
2018-10-05T01:28:14.423Z,94.40
2018-10-05T01:30:43.089Z,94.50
2018-10-05T01:33:11.817Z,94.70
2018-10-05T01:35:40.211Z,94.60
2018-10-05T01:38:08.981Z,94.70
2018-10-05T01:40:37.914Z,94.70
2018-10-05T01:43:06.651Z,94.70
2018-10-05T01:45:34.951Z,94.70
2018-10-05T01:48:03.469Z,94.60
2018-10-05T01:50:32.312Z,94.80
2018-10-05T01:53:00.658Z,94.80
2018-10-05T01:55:29.007Z,94.80
2018-10-05T01:57:57.328Z,94.70
2018-10-05T02:00:25.984Z,94.70
2018-10-05T02:02:54.283Z,94.80
2018-10-05T02:05:22.827Z,94.80
2018-10-05T02:07:51.145Z,94.80
2018-10-05T02:10:19.516Z,94.90
2018-10-05T02:12:48.249Z,94.80
2018-10-05T02:15:16.575Z,94.90
2018-10-05T02:17:45.215Z,94.90
2018-10-05T02:20:13.531Z,95.00
2018-10-05T02:22:41.858Z,95.00
2018-10-05T02:25:10.793Z,95.00
2018-10-05T02:27:39.188Z,95.00
2018-10-05T02:30:07.606Z,95.00
2018-10-05T02:32:36.609Z,94.90
2018-10-05T02:35:05.160Z,94.90
2018-10-05T02:37:33.597Z,95.00
2018-10-05T02:40:01.942Z,95.00
2018-10-05T02:42:30.353Z,94.90
2018-10-05T02:44:58.839Z,94.80
2018-10-05T02:47:27.528Z,94.80
2018-10-05T02:49:56.002Z,94.90
2018-10-05T02:52:24.478Z,94.80
2018-10-05T02:54:52.961Z,94.90
2018-10-05T02:57:21.445Z,94.90
2018-10-05T02:59:49.754Z,94.80
2018-10-05T03:02:29.844Z,94.80
2018-10-05T03:04:58.375Z,94.70
2018-10-05T03:07:27.823Z,94.60
2018-10-05T03:09:56.905Z,94.50
2018-10-05T03:12:25.268Z,94.60
2018-10-05T03:14:54.115Z,94.50
2018-10-05T03:17:22.767Z,94.40
2018-10-05T03:19:51.520Z,94.50
2018-10-05T03:22:20.001Z,94.50
2018-10-05T03:24:48.704Z,94.50
2018-10-05T03:27:17.084Z,94.50
2018-10-05T03:29:45.581Z,94.40
2018-10-05T03:32:14.553Z,94.30
2018-10-05T03:34:42.979Z,94.30
2018-10-05T03:37:11.317Z,94.40
2018-10-05T03:39:40.247Z,94.40
2018-10-05T03:42:08.739Z,94.40
2018-10-05T03:44:37.037Z,94.30
2018-10-05T03:47:05.759Z,94.40
2018-10-05T03:49:34.143Z,94.20
2018-10-05T03:52:02.730Z,94.20
2018-10-05T03:54:31.494Z,94.10
2018-10-05T03:56:59.814Z,93.90
2018-10-05T03:59:28.264Z,93.80
2018-10-05T04:01:56.919Z,93.60
2018-10-05T04:04:25.592Z,93.50
2018-10-05T04:06:54.260Z,93.50
2018-10-05T04:09:22.970Z,93.40
2018-10-05T04:11:51.435Z,93.20
2018-10-05T04:14:19.744Z,93.20
2018-10-05T04:16:48.632Z,93.10
2018-10-05T04:19:17.025Z,93.10
2018-10-05T04:21:45.434Z,93.00
2018-10-05T04:24:13.742Z,93.00
2018-10-05T04:26:42.043Z,93.00
2018-10-05T04:29:10.584Z,92.80
2018-10-05T04:31:39.129Z,92.60
2018-10-05T04:34:07.728Z,92.60
2018-10-05T04:36:36.057Z,92.60
2018-10-05T04:39:05.544Z,92.50
2018-10-05T04:41:34.164Z,92.60
2018-10-05T04:44:02.500Z,92.70
2018-10-05T04:46:31.207Z,92.50
2018-10-05T04:48:59.780Z,92.50
2018-10-05T04:51:28.600Z,92.40
2018-10-05T04:53:57.306Z,92.40
2018-10-05T04:56:25.698Z,92.20
2018-10-05T04:58:54.017Z,92.20
2018-10-05T05:01:22.731Z,92.30
2018-10-05T05:03:51.198Z,92.20
2018-10-05T05:06:19.547Z,92.20
2018-10-05T05:08:48.345Z,92.00
2018-10-05T05:11:17.545Z,91.90
2018-10-05T05:13:45.912Z,92.00
2018-10-05T05:16:14.908Z,91.90
2018-10-05T05:18:43.905Z,92.10
2018-10-05T05:21:12.471Z,92.10
2018-10-05T05:23:41.070Z,91.90
2018-10-05T05:26:09.713Z,92.00
2018-10-05T05:28:38.404Z,92.00
2018-10-05T05:31:07.477Z,91.90
2018-10-05T05:33:35.982Z,91.90
2018-10-05T05:36:04.321Z,92.00
2018-10-05T05:38:33.152Z,91.90
2018-10-05T05:41:01.709Z,92.00
2018-10-05T05:43:30.915Z,91.90
2018-10-05T05:45:59.561Z,92.00
2018-10-05T05:48:28.013Z,91.80
2018-10-05T05:50:56.396Z,91.80
2018-10-05T05:53:25.535Z,91.80
2018-10-05T05:55:54.092Z,91.70
2018-10-05T05:58:22.467Z,91.90
2018-10-05T06:00:51.579Z,91.60
2018-10-05T06:03:20.071Z,91.80
2018-10-05T06:05:48.396Z,91.70
2018-10-05T06:08:17.520Z,91.70
2018-10-05T06:10:45.914Z,91.70
2018-10-05T06:13:14.244Z,91.40
2018-10-05T06:15:43.020Z,91.40
2018-10-05T06:18:11.369Z,91.30
2018-10-05T06:20:40.394Z,91.50
2018-10-05T06:23:08.899Z,91.40
2018-10-05T06:25:37.422Z,91.40
2018-10-05T06:28:06.044Z,91.50
2018-10-05T06:30:34.837Z,91.40
2018-10-05T06:33:03.614Z,91.40
2018-10-05T06:35:31.893Z,91.30
2018-10-05T06:38:00.559Z,91.10
2018-10-05T06:40:29.344Z,90.90
2018-10-05T06:42:57.678Z,91.00
2018-10-05T06:45:26.448Z,90.80
2018-10-05T06:47:54.839Z,90.80
2018-10-05T06:50:23.265Z,91.10
2018-10-05T06:52:52.635Z,90.80
2018-10-05T06:55:20.963Z,90.70
2018-10-05T06:57:49.250Z,90.70
2018-10-05T07:00:18.587Z,90.60
2018-10-05T07:02:46.931Z,90.50
2018-10-05T07:05:15.567Z,90.40
2018-10-05T07:07:44.677Z,90.40
2018-10-05T07:10:13.447Z,90.30
2018-10-05T07:12:42.016Z,90.40
2018-10-05T07:15:10.538Z,90.80
2018-10-05T07:17:38.874Z,90.50
2018-10-05T07:20:07.634Z,90.70
2018-10-05T07:22:36.621Z,90.60
2018-10-05T07:25:05.081Z,90.50
2018-10-05T07:27:33.706Z,90.30
2018-10-05T07:30:02.506Z,90.10
2018-10-05T07:32:30.812Z,90.10
2018-10-05T07:34:59.160Z,90.20
2018-10-05T07:37:27.913Z,90.30
2018-10-05T07:39:56.318Z,90.10
2018-10-05T07:42:24.698Z,90.00
2018-10-05T07:44:53.073Z,90.10
2018-10-05T07:47:21.444Z,90.00
2018-10-05T07:49:49.829Z,90.30
2018-10-05T07:52:18.764Z,90.20
2018-10-05T07:54:47.040Z,89.70
2018-10-05T07:57:15.373Z,89.00
2018-10-05T07:59:44.470Z,88.30
2018-10-05T08:02:12.776Z,88.20
2018-10-05T08:04:41.216Z,87.80
2018-10-05T08:07:09.907Z,87.50
2018-10-05T08:09:38.345Z,87.40
2018-10-05T08:12:06.762Z,88.10
2018-10-05T08:14:35.323Z,87.20
2018-10-05T08:17:03.695Z,87.80
2018-10-05T08:19:32.015Z,86.80
2018-10-05T08:22:00.415Z,86.40
2018-10-05T08:24:28.968Z,87.00
2018-10-05T08:26:57.535Z,86.50
2018-10-05T08:29:25.869Z,87.80
2018-10-05T08:31:54.244Z,87.90
2018-10-05T08:34:22.988Z,88.30
2018-10-05T08:36:51.723Z,88.30
2018-10-05T08:39:20.124Z,87.60
2018-10-05T08:41:48.496Z,87.20
2018-10-05T08:44:17.416Z,86.70
2018-10-05T08:46:45.826Z,86.50
2018-10-05T08:49:14.198Z,85.30
2018-10-05T08:51:42.996Z,84.20
2018-10-05T08:54:11.276Z,82.60
2018-10-05T08:56:39.623Z,81.30
2018-10-05T08:59:08.349Z,77.90
2018-10-05T09:01:36.647Z,74.90
2018-10-05T09:04:05.122Z,71.50
2018-10-05T09:06:33.964Z,70.90
2018-10-05T09:09:02.310Z,72.90
2018-10-05T09:11:31.210Z,73.20
2018-10-05T09:13:59.788Z,73.60
2018-10-05T09:16:28.071Z,72.90
2018-10-05T09:18:56.514Z,74.50
2018-10-05T09:21:25.103Z,72.40
2018-10-05T09:23:53.868Z,73.10
2018-10-05T09:26:22.595Z,70.60
2018-10-05T09:28:51.225Z,70.10
2018-10-05T09:31:19.575Z,72.10
2018-10-05T09:33:47.904Z,72.00
2018-10-05T09:36:16.258Z,72.80
2018-10-05T09:38:44.833Z,72.60
2018-10-05T09:41:13.327Z,73.80
2018-10-05T09:43:41.944Z,70.60
2018-10-05T09:46:10.335Z,69.50
2018-10-05T09:48:38.899Z,65.00
2018-10-05T09:51:07.641Z,64.90
2018-10-05T09:53:36.008Z,64.70
2018-10-05T09:56:04.936Z,66.40
2018-10-05T09:58:33.768Z,68.60
2018-10-05T10:01:07.862Z,69.70
2018-10-05T10:03:37.133Z,71.30
2018-10-05T10:06:06.317Z,71.50
2018-10-05T10:08:35.071Z,71.40
2018-10-05T10:11:03.875Z,71.60
2018-10-05T10:13:32.627Z,71.80
2018-10-05T10:16:00.955Z,72.00
2018-10-05T10:18:30.110Z,70.70
2018-10-05T10:20:58.567Z,71.40
2018-10-05T10:23:26.986Z,72.20
2018-10-05T10:25:56.052Z,67.10
2018-10-05T10:28:25.246Z,66.00
2018-10-05T10:30:53.611Z,64.70
2018-10-05T10:33:22.357Z,61.30
2018-10-05T10:35:51.008Z,55.90
2018-10-05T10:38:19.369Z,51.70
2018-10-05T10:40:48.114Z,52.30
2018-10-05T10:43:17.103Z,54.10
2018-10-05T10:45:45.432Z,55.90
2018-10-05T10:48:14.085Z,58.50
2018-10-05T10:50:42.485Z,59.40
2018-10-05T10:53:11.125Z,58.80
2018-10-05T10:55:39.909Z,59.40
2018-10-05T10:58:08.856Z,58.10
2018-10-05T11:00:37.318Z,57.90
2018-10-05T11:03:06.114Z,59.10
2018-10-05T11:05:34.391Z,58.50
2018-10-05T11:08:03.076Z,58.70
2018-10-05T11:10:32.077Z,60.10
2018-10-05T11:13:00.625Z,61.10
2018-10-05T11:15:28.938Z,62.10
2018-10-05T11:17:57.819Z,63.60
2018-10-05T11:20:26.203Z,62.00
2018-10-05T11:22:54.575Z,61.30
2018-10-05T11:25:23.762Z,58.80
2018-10-05T11:27:52.252Z,58.30
2018-10-05T11:30:21.093Z,58.00
2018-10-05T11:32:56.249Z,56.70
2018-10-05T11:35:24.607Z,54.80
2018-10-05T11:37:53.443Z,54.80
2018-10-05T11:40:22.632Z,55.50
2018-10-05T11:42:50.984Z,55.90
2018-10-05T11:45:19.721Z,55.80
2018-10-05T11:47:48.241Z,55.70
2018-10-05T11:50:17.070Z,53.30
2018-10-05T11:52:45.513Z,53.40
2018-10-05T11:55:14.330Z,54.60
2018-10-05T11:57:43.480Z,57.00
2018-10-05T12:00:11.891Z,56.30
2018-10-05T12:02:41.159Z,54.30
2018-10-05T12:05:09.570Z,55.80
2018-10-05T12:07:37.939Z,55.30
2018-10-05T12:10:06.494Z,55.40
2018-10-05T12:12:34.847Z,56.30
2018-10-05T12:15:03.239Z,54.80
2018-10-05T12:17:32.080Z,55.90
2018-10-05T12:20:00.410Z,56.50
2018-10-05T12:22:28.782Z,55.60
2018-10-05T12:24:57.736Z,56.10
2018-10-05T12:27:26.319Z,55.40
2018-10-05T12:29:55.206Z,56.10
2018-10-05T12:32:24.353Z,55.40
2018-10-05T12:34:53.019Z,55.90
2018-10-05T12:37:21.398Z,56.30
2018-10-05T12:39:50.048Z,55.90
2018-10-05T12:42:18.424Z,55.30
2018-10-05T12:44:47.319Z,55.60
2018-10-05T12:47:16.083Z,57.00
2018-10-05T12:49:44.415Z,55.00
2018-10-05T12:52:12.890Z,53.80
2018-10-05T12:54:42.051Z,50.00
2018-10-05T12:57:10.368Z,50.10
2018-10-05T12:59:38.982Z,49.50
2018-10-05T13:02:08.366Z,47.90
2018-10-05T13:04:36.749Z,48.70
2018-10-05T13:07:05.132Z,49.30
2018-10-05T13:09:33.607Z,50.50
2018-10-05T13:12:02.130Z,51.30
2018-10-05T13:14:30.498Z,52.60
2018-10-05T13:16:59.061Z,53.60
2018-10-05T13:19:27.437Z,53.90
2018-10-05T13:21:55.771Z,53.20
2018-10-05T13:24:24.344Z,55.30
2018-10-05T13:26:52.673Z,54.80
2018-10-05T13:29:21.018Z,55.50
2018-10-05T13:31:50.040Z,56.70
2018-10-05T13:34:18.709Z,55.70
2018-10-05T13:36:47.054Z,55.10
2018-10-05T13:39:15.720Z,53.80
2018-10-05T13:41:44.101Z,54.70
2018-10-05T13:44:12.674Z,55.00
2018-10-05T13:46:41.162Z,54.60
2018-10-05T13:49:09.543Z,55.30
2018-10-05T13:51:38.309Z,55.30
2018-10-05T13:54:07.042Z,55.10
2018-10-05T13:56:35.793Z,54.60
2018-10-05T13:59:05.031Z,54.90
2018-10-05T14:01:33.780Z,53.70
2018-10-05T14:04:02.124Z,54.30
2018-10-05T14:06:30.518Z,56.50
2018-10-05T14:08:59.014Z,55.00
2018-10-05T14:11:27.326Z,55.10
2018-10-05T14:13:55.861Z,55.80
2018-10-05T14:16:24.494Z,56.70
2018-10-05T14:18:52.967Z,56.00
2018-10-05T14:21:21.716Z,56.90
2018-10-05T14:23:50.325Z,56.30
2018-10-05T14:26:18.675Z,58.40
2018-10-05T14:28:47.029Z,58.10
2018-10-05T14:31:15.779Z,58.80
2018-10-05T14:33:44.398Z,58.60
2018-10-05T14:36:13.210Z,59.30
2018-10-05T14:38:41.517Z,59.80
2018-10-05T14:41:09.845Z,59.40
2018-10-05T14:43:38.181Z,60.10
2018-10-05T14:46:07.212Z,60.20
2018-10-05T14:48:35.517Z,60.90
2018-10-05T14:51:03.821Z,60.10
2018-10-05T14:53:32.349Z,60.00
2018-10-05T14:56:00.798Z,60.00
2018-10-05T14:58:29.129Z,60.60
2018-10-05T15:00:57.527Z,60.90
2018-10-05T15:03:25.889Z,62.20
2018-10-05T15:05:54.228Z,62.70
2018-10-05T15:08:22.988Z,62.40
2018-10-05T15:10:51.439Z,62.70
2018-10-05T15:13:19.833Z,64.00
2018-10-05T15:15:48.312Z,64.40
2018-10-05T15:18:16.859Z,65.80
2018-10-05T15:20:45.437Z,66.00
2018-10-05T15:23:14.192Z,66.30
2018-10-05T15:25:42.706Z,66.70
2018-10-05T15:28:11.770Z,65.50
2018-10-05T15:30:40.089Z,65.30
2018-10-05T15:33:08.446Z,65.60
2018-10-05T15:35:37.524Z,65.90
2018-10-05T15:38:06.440Z,65.60
2018-10-05T15:40:34.726Z,64.90
2018-10-05T15:43:03.228Z,64.60
2018-10-05T15:45:31.764Z,65.10
2018-10-05T15:48:00.372Z,65.00
2018-10-05T15:50:28.730Z,64.40
2018-10-05T15:52:57.676Z,64.30
2018-10-05T15:55:26.000Z,63.60
2018-10-05T15:57:54.310Z,65.00
2018-10-05T16:00:23.057Z,65.50
2018-10-05T16:02:51.420Z,66.30
2018-10-05T16:05:19.810Z,66.10
2018-10-05T16:07:48.575Z,67.20
2018-10-05T16:10:17.034Z,67.30
2018-10-05T16:12:45.357Z,67.40
2018-10-05T16:15:13.742Z,67.40
2018-10-05T16:17:42.064Z,67.70
2018-10-05T16:20:10.466Z,67.60
2018-10-05T16:22:38.823Z,68.10
2018-10-05T16:25:07.147Z,68.40
2018-10-05T16:27:35.470Z,67.90
2018-10-05T16:30:04.632Z,68.30
2018-10-05T16:32:32.990Z,68.50
2018-10-05T16:35:01.336Z,68.10
2018-10-05T16:37:30.502Z,66.80
2018-10-05T16:39:58.679Z,67.30
2018-10-05T16:42:27.068Z,66.30
2018-10-05T16:44:55.421Z,66.60
2018-10-05T16:47:24.135Z,66.00
2018-10-05T16:49:52.506Z,64.90
2018-10-05T16:52:21.307Z,65.40
2018-10-05T16:54:49.875Z,65.10
2018-10-05T16:57:18.221Z,64.90
2018-10-05T16:59:47.045Z,65.00
2018-10-05T17:02:15.386Z,65.60
2018-10-05T17:04:43.712Z,65.90
2018-10-05T17:07:12.827Z,66.30
2018-10-05T17:09:41.127Z,66.30
2018-10-05T17:12:09.498Z,66.50
2018-10-05T17:14:38.032Z,66.60
2018-10-05T17:17:06.550Z,65.80
2018-10-05T17:19:34.840Z,65.80
2018-10-05T17:22:03.668Z,65.00
2018-10-05T17:24:31.997Z,65.00
2018-10-05T17:27:00.678Z,64.30
2018-10-05T17:29:29.358Z,65.00
2018-10-05T17:31:57.651Z,65.20
2018-10-05T17:34:26.004Z,66.00
2018-10-05T17:36:54.842Z,66.80
2018-10-05T17:39:23.148Z,66.70
2018-10-05T17:41:51.515Z,66.90
2018-10-05T17:44:20.284Z,67.50
2018-10-05T17:46:48.913Z,68.10
2018-10-05T17:49:17.520Z,68.80
2018-10-05T17:51:46.373Z,68.60
2018-10-05T17:54:14.737Z,69.00
2018-10-05T17:56:43.321Z,68.90
2018-10-05T17:59:12.087Z,69.90
2018-10-05T18:01:40.787Z,69.80
2018-10-05T18:04:09.075Z,70.10
2018-10-05T18:06:37.864Z,70.10
2018-10-05T18:09:07.434Z,70.00
2018-10-05T18:11:36.139Z,70.40
2018-10-05T18:14:05.151Z,71.20
2018-10-05T18:16:33.744Z,71.50
2018-10-05T18:19:02.244Z,71.70
2018-10-05T18:21:31.236Z,72.20
2018-10-05T18:23:59.607Z,72.30
2018-10-05T18:26:28.149Z,72.00
2018-10-05T18:28:56.782Z,72.20
2018-10-05T18:31:25.090Z,73.00
2018-10-05T18:33:53.404Z,74.10
2018-10-05T18:36:22.208Z,74.40
2018-10-05T18:38:50.510Z,74.80
2018-10-05T18:41:18.875Z,74.50
2018-10-05T18:43:47.672Z,73.80
2018-10-05T18:46:16.056Z,73.70
2018-10-05T18:48:44.474Z,73.80
2018-10-05T18:51:13.318Z,73.40
2018-10-05T18:53:41.851Z,73.20
2018-10-05T18:56:21.555Z,72.70
2018-10-05T18:58:50.271Z,72.80
2018-10-05T19:01:19.005Z,72.50
2018-10-05T19:03:47.542Z,70.70
2018-10-05T19:06:15.918Z,70.60
2018-10-05T19:08:44.790Z,70.50
2018-10-05T19:11:13.485Z,70.70
2018-10-05T19:13:41.845Z,70.10
2018-10-05T19:16:10.498Z,70.70
2018-10-05T19:18:39.083Z,70.60
2018-10-05T19:21:07.393Z,71.50
2018-10-05T19:23:35.933Z,72.50
2018-10-05T19:26:04.789Z,72.90
2018-10-05T19:28:33.605Z,72.90
2018-10-05T19:31:01.919Z,73.40
2018-10-05T19:33:30.562Z,73.10
2018-10-05T19:35:59.010Z,73.40
2018-10-05T19:38:27.473Z,72.60
2018-10-05T19:40:56.167Z,72.50
2018-10-05T19:43:24.592Z,72.60
2018-10-05T19:45:52.914Z,72.50
2018-10-05T19:48:21.426Z,72.40
2018-10-05T19:50:49.728Z,73.30
2018-10-05T19:53:18.378Z,72.70
2018-10-05T19:55:46.869Z,72.60
2018-10-05T19:58:15.238Z,72.40
2018-10-05T20:00:44.159Z,71.00
2018-10-05T20:03:12.915Z,70.80
2018-10-05T20:05:41.551Z,70.70
2018-10-05T20:08:10.128Z,69.80
2018-10-05T20:10:38.930Z,69.30
2018-10-05T20:13:07.551Z,70.00
2018-10-05T20:15:35.879Z,69.50
2018-10-05T20:18:04.556Z,68.90
2018-10-05T20:20:32.823Z,69.60
2018-10-05T20:23:01.312Z,69.30
2018-10-05T20:25:30.290Z,69.10
2018-10-05T20:27:58.734Z,68.70
2018-10-05T20:30:27.050Z,68.20
2018-10-05T20:32:56.044Z,68.10
2018-10-05T20:35:24.390Z,67.30
2018-10-05T20:37:53.152Z,67.60
2018-10-05T20:40:21.832Z,67.20
2018-10-05T20:42:50.160Z,67.40
2018-10-05T20:45:18.640Z,67.50
2018-10-05T20:47:47.596Z,67.90
2018-10-05T20:50:16.057Z,67.60
2018-10-05T20:52:44.693Z,67.30
2018-10-05T20:55:13.630Z,67.60
2018-10-05T20:57:41.955Z,68.10
2018-10-05T21:00:10.631Z,67.40
2018-10-05T21:02:39.738Z,67.60
2018-10-05T21:05:08.304Z,68.10
2018-10-05T21:07:36.811Z,68.10
2018-10-05T21:10:05.768Z,68.70
2018-10-05T21:12:34.172Z,68.90
2018-10-05T21:15:02.831Z,69.40
2018-10-05T21:17:31.319Z,70.20
2018-10-05T21:19:59.645Z,70.40
2018-10-05T21:22:28.031Z,71.40
2018-10-05T21:24:56.753Z,71.60
2018-10-05T21:27:25.361Z,71.70
2018-10-05T21:29:53.814Z,71.70
2018-10-05T21:32:22.480Z,72.40
2018-10-05T21:34:51.301Z,73.10
2018-10-05T21:37:19.793Z,73.30
2018-10-05T21:39:49.025Z,73.70
2018-10-05T21:42:17.664Z,74.10
2018-10-05T21:44:46.058Z,74.20
2018-10-05T21:47:14.802Z,74.70
2018-10-05T21:49:43.113Z,75.20
2018-10-05T21:52:11.761Z,75.70
2018-10-05T21:54:40.409Z,76.20
2018-10-05T21:57:08.771Z,76.60
2018-10-05T21:59:37.544Z,76.90
2018-10-05T22:02:06.281Z,77.60
2018-10-05T22:04:35.016Z,77.90
2018-10-05T22:07:03.580Z,78.70
2018-10-05T22:09:32.165Z,79.10
2018-10-05T22:12:00.947Z,79.70
2018-10-05T22:14:29.295Z,80.20
2018-10-05T22:16:57.899Z,80.60
2018-10-05T22:19:26.485Z,81.00
2018-10-05T22:21:54.805Z,81.30
2018-10-05T22:24:23.948Z,82.20
2018-10-05T22:26:52.463Z,81.70
2018-10-05T22:29:20.827Z,82.00
2018-10-05T22:31:49.601Z,82.40
2018-10-05T22:34:17.943Z,82.30
2018-10-05T22:36:46.320Z,83.30
2018-10-05T22:39:15.006Z,82.60
2018-10-05T22:41:43.485Z,83.20
2018-10-05T22:44:11.813Z,83.40
2018-10-05T22:46:41.201Z,83.50
2018-10-05T22:49:10.001Z,83.60
2018-10-05T22:51:38.323Z,83.80
2018-10-05T22:54:07.110Z,84.00
2018-10-05T22:56:35.440Z,84.30
2018-10-05T22:59:03.747Z,84.70
2018-10-05T23:01:32.628Z,84.60
2018-10-05T23:04:00.939Z,84.70
2018-10-05T23:06:29.837Z,84.60
2018-10-05T23:08:58.668Z,84.60
2018-10-05T23:11:27.006Z,84.60
2018-10-05T23:13:55.325Z,85.00
2018-10-05T23:16:24.305Z,84.60
2018-10-05T23:18:52.627Z,84.80
2018-10-05T23:21:20.934Z,84.90
2018-10-05T23:23:49.614Z,84.90
2018-10-05T23:26:18.047Z,85.00
2018-10-05T23:28:46.813Z,85.20
2018-10-05T23:31:15.603Z,85.10
2018-10-05T23:33:43.928Z,85.20
2018-10-05T23:36:12.283Z,85.50
2018-10-05T23:38:40.837Z,85.40
2018-10-05T23:41:09.185Z,85.40
2018-10-05T23:43:37.513Z,85.30
2018-10-05T23:46:06.291Z,86.00
2018-10-05T23:48:34.882Z,86.10
2018-10-05T23:51:03.343Z,86.20
2018-10-05T23:53:32.413Z,86.60
2018-10-05T23:56:00.826Z,86.70
2018-10-05T23:58:29.142Z,87.30
